Time;durP1;ratioP1;P1;durP2;ratioP2;P2;SDS_P1;SDS_P2;PMS_P1;PMS_P2;Temp;Humidity;BMP_temperature;BMP_pressure;BME280_temperature;BME280_humidity;BME280_pressure;Samples;Min_cycle;Max_cycle;Signal;HPM_P1;HPM_P2
2023/07/25 00:00:31;;;;;;;5.38;2.83;;;15.20;99.90;;;;;;5117827;28;20538;-52
2023/07/25 00:02:56;;;;;;;7.10;3.00;;;15.10;99.90;;;;;;5117809;28;20176;-52
2023/07/25 00:05:22;;;;;;;6.30;2.72;;;15.20;99.90;;;;;;5116209;28;20284;-52
2023/07/25 00:07:48;;;;;;;4.93;2.47;;;15.20;99.90;;;;;;5117421;28;20226;-51
2023/07/25 00:10:13;;;;;;;5.72;2.80;;;15.20;99.90;;;;;;5117898;28;20238;-53
2023/07/25 00:12:39;;;;;;;5.20;2.75;;;15.30;99.90;;;;;;5117786;28;20173;-52
2023/07/25 00:15:05;;;;;;;5.75;3.20;;;15.40;99.90;;;;;;5117578;28;20173;-50
2023/07/25 00:17:31;;;;;;;6.53;2.90;;;15.40;99.90;;;;;;5117471;28;20180;-51
2023/07/25 00:19:57;;;;;;;3.78;2.83;;;15.40;99.90;;;;;;5117724;28;20228;-51
2023/07/25 00:22:23;;;;;;;5.43;2.65;;;15.30;99.90;;;;;;5117577;28;20173;-49
2023/07/25 00:24:48;;;;;;;6.00;2.80;;;15.20;99.90;;;;;;5117355;28;20680;-50
2023/07/25 00:27:14;;;;;;;5.57;3.20;;;15.20;99.90;;;;;;5117322;28;20177;-54
2023/07/25 00:29:40;;;;;;;7.18;2.95;;;15.20;99.90;;;;;;5117347;28;20166;-51
2023/07/25 00:32:06;;;;;;;6.28;3.40;;;15.20;99.90;;;;;;5117278;28;20626;-52
2023/07/25 00:34:31;;;;;;;6.63;3.40;;;15.20;99.90;;;;;;5117163;28;20251;-52
2023/07/25 00:36:57;;;;;;;8.30;3.08;;;15.30;99.90;;;;;;5117199;28;20191;-49
2023/07/25 00:39:23;;;;;;;7.38;3.10;;;15.40;99.90;;;;;;5116835;28;20176;-53
2023/07/25 00:41:48;;;;;;;7.72;3.08;;;15.50;99.90;;;;;;5117092;28;20682;-52
2023/07/25 00:44:14;;;;;;;8.05;3.20;;;15.50;99.90;;;;;;5117011;28;20544;-53
2023/07/25 00:46:43;;;;;;;8.20;3.15;;;15.60;99.90;;;;;;5116938;28;20249;-48
2023/07/25 00:49:10;;;;;;;8.50;3.03;;;15.70;99.90;;;;;;5116877;28;20169;-50
2023/07/25 00:51:35;;;;;;;4.50;2.83;;;15.60;99.90;;;;;;5116858;28;20219;-52
2023/07/25 00:54:01;;;;;;;6.40;3.10;;;15.50;99.90;;;;;;5116811;28;20177;-52
2023/07/25 00:56:27;;;;;;;8.38;2.90;;;15.40;99.90;;;;;;5115827;28;20688;-52
2023/07/25 00:58:54;;;;;;;6.75;2.90;;;15.40;99.90;;;;;;5117064;28;20226;-53
2023/07/25 01:01:21;;;;;;;6.10;2.78;;;15.50;99.90;;;;;;5116623;28;20169;-52
2023/07/25 01:03:47;;;;;;;7.70;3.28;;;15.50;99.90;;;;;;5116613;28;20256;-49
2023/07/25 01:06:14;;;;;;;4.55;3.00;;;15.60;99.90;;;;;;5116752;28;20621;-51
2023/07/25 01:08:52;;;;;;;7.63;2.90;;;15.60;99.90;;;;;;5116689;28;20172;-53
2023/07/25 01:11:19;;;;;;;5.70;2.72;;;15.70;99.90;;;;;;5116463;28;20169;-52
2023/07/25 01:13:45;;;;;;;8.55;3.20;;;15.60;99.90;;;;;;5116448;28;20199;-54
2023/07/25 01:16:15;;;;;;;5.05;2.95;;;15.50;99.90;;;;;;5116413;28;20208;-50
2023/07/25 01:18:41;;;;;;;6.13;2.85;;;15.50;99.90;;;;;;5116150;28;20217;-52
2023/07/25 01:21:08;;;;;;;9.80;3.17;;;15.50;99.90;;;;;;5116400;28;20172;-51
2023/07/25 01:23:36;;;;;;;7.15;3.15;;;15.50;99.90;;;;;;5115970;28;20649;-51
2023/07/25 01:26:01;;;;;;;7.45;3.20;;;15.50;99.90;;;;;;5116284;28;20200;-50
2023/07/25 01:28:27;;;;;;;3.92;2.92;;;15.60;99.90;;;;;;5116461;28;20178;-53
2023/07/25 01:30:53;;;;;;;6.45;2.70;;;15.50;99.90;;;;;;5116111;28;20169;-53
2023/07/25 01:33:18;;;;;;;8.02;3.50;;;15.50;99.90;;;;;;5116069;28;20170;-52
2023/07/25 01:35:44;;;;;;;5.53;3.10;;;15.40;99.90;;;;;;5116287;28;20522;-50
2023/07/25 01:38:09;;;;;;;7.05;2.90;;;15.40;99.90;;;;;;5116035;28;20185;-54
2023/07/25 01:40:39;;;;;;;7.35;3.13;;;15.40;99.90;;;;;;5115952;28;20185;-54
2023/07/25 01:43:05;;;;;;;6.82;3.40;;;15.40;99.90;;;;;;5115857;28;20185;-51
2023/07/25 01:45:31;;;;;;;8.10;3.17;;;15.40;99.90;;;;;;5115782;27;20657;-50
2023/07/25 01:47:57;;;;;;;6.30;3.25;;;15.40;99.90;;;;;;5116014;28;20173;-51
2023/07/25 01:50:22;;;;;;;6.93;3.20;;;15.50;99.90;;;;;;5115759;28;20248;-52
2023/07/25 01:52:48;;;;;;;5.55;2.85;;;15.50;99.90;;;;;;5115390;28;20202;-53
2023/07/25 01:55:14;;;;;;;5.88;2.80;;;15.60;99.90;;;;;;5115643;28;20614;-53
2023/07/25 01:57:39;;;;;;;7.10;3.30;;;15.40;99.90;;;;;;5114378;28;20176;-48
2023/07/25 02:00:06;;;;;;;6.38;3.10;;;15.30;99.90;;;;;;5115524;28;20579;-52
2023/07/25 02:02:31;;;;;;;5.50;3.47;;;15.40;99.90;;;;;;5115440;28;20192;-50
2023/07/25 02:04:57;;;;;;;4.72;2.90;;;15.30;99.90;;;;;;5114129;28;20177;-51
2023/07/25 02:07:23;;;;;;;5.18;2.95;;;15.30;99.90;;;;;;5114421;28;20176;-53
2023/07/25 02:09:48;;;;;;;6.72;3.33;;;15.40;99.90;;;;;;5115358;28;20176;-53
2023/07/25 02:12:14;;;;;;;8.48;3.53;;;15.30;99.90;;;;;;5113734;28;20634;-53
2023/07/25 02:14:39;;;;;;;6.60;3.40;;;15.30;99.90;;;;;;5115269;28;20173;-52
2023/07/25 02:17:05;;;;;;;5.80;3.17;;;15.20;99.90;;;;;;5115216;28;20311;-51
2023/07/25 02:19:31;;;;;;;5.47;3.20;;;15.10;99.90;;;;;;5115117;28;20295;-53
2023/07/25 02:21:56;;;;;;;5.53;3.28;;;15.20;99.90;;;;;;5115071;28;20173;-52
2023/07/25 02:24:22;;;;;;;5.72;3.15;;;15.30;99.90;;;;;;5115378;28;20626;-54
2023/07/25 02:26:48;;;;;;;7.90;3.40;;;15.30;99.90;;;;;;5114676;28;20665;-52
2023/07/25 02:29:13;;;;;;;4.60;3.22;;;15.30;99.90;;;;;;5115047;28;20626;-51
2023/07/25 02:31:39;;;;;;;5.00;3.35;;;15.40;99.90;;;;;;5114738;28;20243;-51
2023/07/25 02:34:05;;;;;;;6.97;3.75;;;15.40;99.90;;;;;;5115105;28;20178;-50
2023/07/25 02:36:30;;;;;;;5.95;3.45;;;15.30;99.90;;;;;;5114850;28;20626;-52
2023/07/25 02:38:56;;;;;;;7.45;3.65;;;15.30;99.90;;;;;;5114823;28;20242;-51
2023/07/25 02:41:22;;;;;;;6.65;3.40;;;15.30;99.90;;;;;;5114738;28;20666;-53
2023/07/25 02:43:47;;;;;;;7.80;3.67;;;15.30;99.90;;;;;;5114707;28;20203;-53
2023/07/25 02:46:13;;;;;;;5.15;3.30;;;15.40;99.90;;;;;;5114632;28;20232;-52
2023/07/25 02:48:38;;;;;;;8.75;3.72;;;15.30;99.90;;;;;;5114719;28;20173;-49
2023/07/25 02:51:04;;;;;;;7.07;3.65;;;15.30;99.90;;;;;;5114585;28;20264;-53
2023/07/25 02:53:30;;;;;;;7.05;3.20;;;15.30;99.90;;;;;;5114497;28;20236;-48
2023/07/25 02:55:55;;;;;;;5.18;3.90;;;15.30;99.90;;;;;;5114465;28;20181;-50
2023/07/25 02:58:21;;;;;;;4.75;3.45;;;15.30;99.90;;;;;;5114156;28;20197;-52
2023/07/25 03:00:48;;;;;;;5.50;3.78;;;15.30;99.90;;;;;;5114390;28;20222;-51
2023/07/25 03:03:14;;;;;;;8.82;4.05;;;15.30;99.90;;;;;;5114336;28;20170;-52
2023/07/25 03:05:39;;;;;;;5.90;3.58;;;15.30;99.90;;;;;;5114255;28;20212;-51
2023/07/25 03:08:05;;;;;;;6.20;4.00;;;15.10;99.90;;;;;;5114313;28;20169;-53
2023/07/25 03:10:31;;;;;;;7.43;4.00;;;15.00;99.90;;;;;;5114282;28;20215;-52
2023/07/25 03:12:57;;;;;;;7.18;4.32;;;15.00;99.90;;;;;;5113973;28;20256;-52
2023/07/25 03:15:23;;;;;;;7.80;3.85;;;15.00;99.90;;;;;;5114148;28;20645;-53
2023/07/25 03:17:49;;;;;;;8.65;4.00;;;15.10;99.90;;;;;;5113731;28;20534;-53
2023/07/25 03:20:14;;;;;;;8.02;3.72;;;15.20;99.90;;;;;;5114364;28;20232;-51
2023/07/25 03:22:40;;;;;;;8.90;3.60;;;15.20;99.90;;;;;;5114059;28;20169;-53
2023/07/25 03:25:06;;;;;;;8.35;3.60;;;15.10;99.90;;;;;;5113990;28;20202;-51
2023/07/25 03:27:32;;;;;;;5.40;3.97;;;15.20;99.90;;;;;;5114043;28;20165;-50
2023/07/25 03:29:58;;;;;;;5.38;3.60;;;15.20;99.90;;;;;;5113970;28;20569;-50
2023/07/25 03:32:23;;;;;;;6.20;3.60;;;15.10;99.90;;;;;;5114002;28;20174;-52
2023/07/25 03:34:49;;;;;;;7.22;3.42;;;15.10;99.90;;;;;;5113912;28;20189;-51
2023/07/25 03:37:15;;;;;;;6.65;3.63;;;15.00;99.90;;;;;;5113928;28;20176;-52
2023/07/25 03:39:41;;;;;;;7.57;3.40;;;15.00;99.90;;;;;;5113888;28;20181;-52
2023/07/25 03:42:06;;;;;;;6.00;3.35;;;15.00;99.90;;;;;;5113977;28;20169;-49
2023/07/25 03:44:32;;;;;;;8.07;3.63;;;15.00;99.90;;;;;;5114161;28;20175;-53
2023/07/25 03:46:57;;;;;;;5.72;3.63;;;15.00;99.90;;;;;;5113747;28;20205;-53
2023/07/25 03:49:23;;;;;;;7.68;3.20;;;15.00;99.90;;;;;;5114194;28;20215;-51
2023/07/25 03:51:49;;;;;;;6.70;3.58;;;15.00;99.90;;;;;;5113962;28;20169;-51
2023/07/25 03:54:14;;;;;;;7.85;3.83;;;15.00;99.90;;;;;;5113799;28;20614;-53
2023/07/25 03:56:40;;;;;;;5.68;3.53;;;15.00;99.90;;;;;;5113778;28;20181;-51
2023/07/25 03:59:06;;;;;;;8.50;3.25;;;15.00;99.90;;;;;;5113745;28;20181;-51
2023/07/25 04:01:31;;;;;;;10.05;3.92;;;14.90;99.90;;;;;;5113742;28;20172;-48
2023/07/25 04:03:57;;;;;;;8.38;3.58;;;14.90;99.90;;;;;;5113685;28;20187;-53
2023/07/25 04:06:23;;;;;;;6.50;3.30;;;14.90;99.90;;;;;;5113666;28;20553;-51
2023/07/25 04:08:48;;;;;;;6.65;3.42;;;14.90;99.90;;;;;;5113557;28;20200;-51
2023/07/25 04:11:14;;;;;;;6.65;3.17;;;14.90;99.90;;;;;;5113621;28;20260;-48
2023/07/25 04:13:40;;;;;;;7.40;3.65;;;14.90;99.90;;;;;;5113638;28;20169;-51
2023/07/25 04:16:06;;;;;;;5.70;3.45;;;14.90;99.90;;;;;;5113619;28;20185;-51
2023/07/25 04:18:31;;;;;;;7.43;3.30;;;14.90;99.90;;;;;;5112091;28;20228;-52
2023/07/25 04:20:57;;;;;;;8.52;3.28;;;14.80;99.90;;;;;;5113697;28;20510;-52
2023/07/25 04:23:23;;;;;;;8.52;3.17;;;14.90;99.90;;;;;;5113235;28;20181;-53
2023/07/25 04:25:49;;;;;;;5.85;2.92;;;14.90;99.90;;;;;;5113137;28;20568;-53
2023/07/25 04:28:14;;;;;;;8.98;3.22;;;14.90;99.90;;;;;;5113429;28;20169;-52
2023/07/25 04:30:40;;;;;;;5.80;2.63;;;14.90;99.90;;;;;;5114756;28;20165;-54
2023/07/25 04:33:06;;;;;;;7.40;2.92;;;14.80;99.90;;;;;;5117182;28;20627;-52
2023/07/25 04:35:32;;;;;;;9.13;3.05;;;14.80;99.90;;;;;;5117197;28;20173;-51
2023/07/25 04:37:58;;;;;;;5.72;2.92;;;14.80;99.90;;;;;;5117292;28;20170;-52
2023/07/25 04:40:25;;;;;;;7.13;2.90;;;14.80;99.90;;;;;;5117161;28;20200;-50
2023/07/25 04:42:50;;;;;;;8.70;3.28;;;14.90;99.90;;;;;;5117052;28;20174;-52
2023/07/25 04:45:16;;;;;;;10.35;3.50;;;15.00;99.90;;;;;;5116908;28;20213;-52
2023/07/25 04:47:42;;;;;;;6.25;2.88;;;15.00;99.90;;;;;;5117017;28;20222;-52
2023/07/25 04:50:08;;;;;;;6.55;3.30;;;15.00;99.90;;;;;;5116954;28;20185;-53
2023/07/25 04:52:34;;;;;;;6.70;3.05;;;15.00;99.90;;;;;;5116879;28;20173;-51
2023/07/25 04:54:59;;;;;;;6.53;3.28;;;14.90;99.90;;;;;;5115685;28;20576;-52
2023/07/25 04:57:25;;;;;;;6.32;2.90;;;14.90;99.90;;;;;;5116910;28;20173;-53
2023/07/25 04:59:51;;;;;;;5.70;3.08;;;14.90;99.90;;;;;;5116444;28;20269;-53
2023/07/25 05:02:19;;;;;;;6.40;2.80;;;14.90;99.90;;;;;;5116725;28;20230;-51
2023/07/25 05:04:45;;;;;;;5.00;2.53;;;14.90;99.90;;;;;;5116680;28;20203;-51
2023/07/25 05:07:10;;;;;;;5.93;2.55;;;14.90;99.90;;;;;;5116618;28;20185;-53
2023/07/25 05:09:36;;;;;;;8.20;2.70;;;14.90;99.90;;;;;;5116546;28;20242;-52
2023/07/25 05:12:04;;;;;;;5.43;2.80;;;14.90;99.90;;;;;;5116503;28;20173;-53
2023/07/25 05:14:30;;;;;;;6.68;2.47;;;14.90;99.90;;;;;;5116511;28;20177;-51
2023/07/25 05:16:56;;;;;;;7.13;2.58;;;14.90;99.90;;;;;;5116173;28;20184;-53
2023/07/25 05:19:21;;;;;;;5.70;2.80;;;14.90;99.90;;;;;;5116016;28;20221;-53
2023/07/25 05:21:47;;;;;;;6.45;2.85;;;14.90;99.90;;;;;;5116042;28;20170;-53
2023/07/25 05:24:14;;;;;;;6.75;2.78;;;14.90;99.90;;;;;;5115973;28;20188;-51
2023/07/25 05:26:41;;;;;;;7.88;2.85;;;14.90;99.90;;;;;;5116422;28;20280;-52
2023/07/25 05:29:06;;;;;;;6.28;2.58;;;14.90;99.90;;;;;;5116230;28;20190;-50
2023/07/25 05:31:32;;;;;;;4.45;2.42;;;14.90;99.90;;;;;;5116230;28;20169;-52
2023/07/25 05:33:58;;;;;;;8.13;2.60;;;14.90;99.90;;;;;;5116116;28;20162;-52
2023/07/25 05:36:23;;;;;;;6.10;2.72;;;14.90;99.90;;;;;;5116012;28;20181;-53
2023/07/25 05:38:49;;;;;;;6.40;2.50;;;14.90;99.90;;;;;;5115713;28;20177;-53
2023/07/25 05:41:15;;;;;;;6.65;2.42;;;14.80;99.90;;;;;;5115497;28;20264;-51
2023/07/25 05:43:40;;;;;;;7.22;2.63;;;14.80;99.90;;;;;;5115629;28;20680;-48
2023/07/25 05:46:07;;;;;;;5.85;2.53;;;14.90;99.90;;;;;;5115803;28;20259;-52
2023/07/25 05:48:33;;;;;;;6.70;2.47;;;14.80;99.90;;;;;;5115841;28;20166;-52
2023/07/25 05:50:58;;;;;;;5.75;2.47;;;14.80;99.90;;;;;;5115512;28;20180;-50
2023/07/25 05:53:24;;;;;;;5.20;2.30;;;14.90;99.90;;;;;;5115770;28;20584;-51
2023/07/25 05:55:50;;;;;;;5.53;2.40;;;14.90;99.90;;;;;;5115672;28;20176;-51
2023/07/25 05:58:16;;;;;;;5.35;2.45;;;14.90;99.90;;;;;;5115349;28;20182;-51
2023/07/25 06:00:43;;;;;;;8.38;2.78;;;14.90;99.90;;;;;;5115619;28;20223;-50
2023/07/25 06:03:14;;;;;;;4.70;2.30;;;14.90;99.90;;;;;;5115280;28;20168;-53
2023/07/25 06:05:40;;;;;;;6.88;2.80;;;15.00;99.90;;;;;;5115422;28;20201;-51
2023/07/25 06:08:06;;;;;;;4.82;2.40;;;15.00;99.90;;;;;;5115438;28;20637;-52
2023/07/25 06:10:32;;;;;;;8.23;2.40;;;15.10;99.90;;;;;;5115417;28;20204;-51
2023/07/25 06:12:58;;;;;;;8.45;2.85;;;15.20;99.90;;;;;;5115004;28;20166;-52
2023/07/25 06:15:24;;;;;;;8.88;2.85;;;15.20;99.90;;;;;;5115213;28;20180;-50
2023/07/25 06:17:49;;;;;;;6.47;2.53;;;15.10;99.90;;;;;;5115230;28;20170;-51
2023/07/25 06:20:15;;;;;;;8.05;2.85;;;15.10;99.90;;;;;;5115378;28;20341;-50
2023/07/25 06:22:41;;;;;;;7.97;2.90;;;15.20;99.90;;;;;;5114854;28;20180;-52
2023/07/25 06:25:08;;;;;;;8.57;2.53;;;15.20;99.90;;;;;;5114958;28;20196;-52
2023/07/25 06:27:34;;;;;;;4.70;2.58;;;15.00;99.90;;;;;;5115030;28;20252;-52
2023/07/25 06:30:02;;;;;;;4.95;2.47;;;14.90;99.90;;;;;;5114973;28;20189;-52
2023/07/25 06:32:27;;;;;;;4.53;2.45;;;15.00;99.90;;;;;;5114908;28;20205;-50
2023/07/25 06:34:53;;;;;;;5.13;2.83;;;15.00;99.90;;;;;;5114933;28;20208;-53
2023/07/25 06:37:19;;;;;;;5.75;2.83;;;15.00;99.90;;;;;;5114667;28;20170;-51
2023/07/25 06:39:44;;;;;;;7.13;2.67;;;14.90;99.90;;;;;;5114805;28;20173;-53
2023/07/25 06:42:10;;;;;;;7.95;2.88;;;14.90;99.90;;;;;;5114786;28;20580;-52
2023/07/25 06:44:36;;;;;;;7.47;2.80;;;14.90;99.90;;;;;;5114608;28;20222;-53
2023/07/25 06:47:01;;;;;;;8.18;2.67;;;14.90;99.90;;;;;;5114626;28;20230;-52
2023/07/25 06:49:27;;;;;;;6.45;2.67;;;14.90;99.90;;;;;;5114937;28;20169;-52
2023/07/25 06:51:55;;;;;;;7.05;2.92;;;14.90;99.90;;;;;;5114815;28;20181;-52
2023/07/25 06:54:21;;;;;;;7.57;2.70;;;15.00;99.90;;;;;;5113667;28;20240;-52
2023/07/25 06:56:47;;;;;;;4.95;2.50;;;15.00;99.90;;;;;;5114363;28;20187;-50
2023/07/25 06:59:13;;;;;;;8.32;2.88;;;15.00;99.90;;;;;;5114448;28;20170;-52
2023/07/25 07:01:39;;;;;;;7.47;2.65;;;15.00;99.90;;;;;;5114255;28;20181;-52
2023/07/25 07:04:04;;;;;;;8.57;2.85;;;15.00;99.90;;;;;;5114395;28;20256;-50
2023/07/25 07:06:30;;;;;;;5.55;2.53;;;15.20;99.90;;;;;;5114294;28;20261;-53
2023/07/25 07:08:56;;;;;;;6.22;2.55;;;15.20;99.90;;;;;;5114274;28;20181;-51
2023/07/25 07:11:21;;;;;;;5.32;2.30;;;15.20;99.90;;;;;;5114222;28;20169;-51
2023/07/25 07:13:47;;;;;;;4.45;2.20;;;15.40;99.90;;;;;;5113994;28;20529;-54
2023/07/25 07:16:13;;;;;;;7.88;2.38;;;15.40;99.90;;;;;;5114211;28;20706;-53
2023/07/25 07:18:39;;;;;;;4.97;1.92;;;15.50;99.90;;;;;;5113928;28;20351;-52
2023/07/25 07:21:05;;;;;;;5.15;1.90;;;15.50;99.90;;;;;;5114199;28;20193;-51
2023/07/25 07:23:31;;;;;;;5.32;2.20;;;15.40;99.90;;;;;;5114137;28;20632;-51
2023/07/25 07:25:57;;;;;;;6.10;2.00;;;15.40;99.90;;;;;;5114267;28;20205;-49
2023/07/25 07:28:22;;;;;;;6.75;2.05;;;15.50;99.90;;;;;;5114024;28;20174;-50
2023/07/25 07:30:49;;;;;;;4.72;2.00;;;15.50;99.90;;;;;;5114038;28;20219;-52
2023/07/25 07:33:16;;;;;;;6.78;1.95;;;15.70;99.90;;;;;;5113953;28;20264;-48
2023/07/25 07:35:41;;;;;;;5.40;1.83;;;16.10;99.90;;;;;;5113925;28;20181;-52
2023/07/25 07:38:07;;;;;;;4.68;1.88;;;16.20;99.90;;;;;;5113950;28;20181;-52
2023/07/25 07:40:35;;;;;;;5.55;2.00;;;16.50;99.90;;;;;;5113987;28;20219;-51
2023/07/25 07:43:00;;;;;;;4.60;1.63;;;16.50;99.90;;;;;;5113918;28;20173;-52
2023/07/25 07:45:27;;;;;;;6.57;2.03;;;16.50;99.90;;;;;;5113863;28;20208;-52
2023/07/25 07:47:53;;;;;;;5.00;1.90;;;16.40;99.90;;;;;;5113878;28;20173;-54
2023/07/25 07:50:19;;;;;;;4.22;1.63;;;16.60;99.90;;;;;;5113568;28;20645;-52
2023/07/25 07:52:45;;;;;;;3.88;1.50;;;16.80;99.90;;;;;;5113875;28;20176;-48
2023/07/25 07:55:11;;;;;;;4.95;1.73;;;16.80;99.90;;;;;;5113767;28;20570;-52
2023/07/25 07:57:39;;;;;;;4.75;1.50;;;16.70;99.90;;;;;;5113813;28;20503;-52
2023/07/25 08:00:06;;;;;;;4.45;2.10;;;16.70;99.90;;;;;;5113711;28;20568;-52
2023/07/25 08:02:32;;;;;;;3.45;1.60;;;16.50;99.90;;;;;;5113762;28;20180;-50
2023/07/25 08:04:58;;;;;;;6.20;1.95;;;16.40;99.90;;;;;;5115485;28;20169;-53
2023/07/25 08:07:23;;;;;;;4.63;1.60;;;16.40;99.90;;;;;;5117515;28;20687;-50
2023/07/25 08:09:56;;;;;;;5.10;1.77;;;16.50;99.90;;;;;;5117789;28;20727;-52
2023/07/25 08:12:22;;;;;;;3.25;1.70;;;16.60;99.90;;;;;;5117668;28;20165;-52
2023/07/25 08:14:48;;;;;;;5.50;1.95;;;16.60;99.90;;;;;;5117407;28;20173;-52
2023/07/25 08:17:14;;;;;;;6.68;1.85;;;17.00;99.90;;;;;;5117539;28;20636;-54
2023/07/25 08:19:40;;;;;;;6.28;1.80;;;16.90;99.90;;;;;;5117602;28;20225;-52
2023/07/25 08:22:05;;;;;;;7.95;1.90;;;16.90;99.90;;;;;;5117198;28;20174;-52
2023/07/25 08:24:34;;;;;;;5.65;1.67;;;17.00;99.90;;;;;;5117168;28;20181;-52
2023/07/25 08:27:00;;;;;;;6.82;1.98;;;17.00;99.90;;;;;;5117353;28;20229;-52
2023/07/25 08:29:26;;;;;;;3.58;1.58;;;17.10;99.90;;;;;;5117426;28;20216;-50
2023/07/25 08:31:52;;;;;;;8.23;1.70;;;17.30;99.90;;;;;;5117059;28;20170;-53
2023/07/25 08:34:19;;;;;;;6.45;1.90;;;17.30;99.90;;;;;;5117254;28;20200;-49
2023/07/25 08:36:44;;;;;;;6.15;1.60;;;17.20;99.90;;;;;;5117249;28;20173;-53
2023/07/25 08:39:10;;;;;;;4.72;1.48;;;17.20;99.90;;;;;;5117166;28;20174;-51
2023/07/25 08:41:39;;;;;;;6.22;2.05;;;17.20;99.90;;;;;;5117158;28;20618;-52
2023/07/25 08:44:09;;;;;;;3.95;1.60;;;17.30;99.90;;;;;;5117129;28;20174;-53
2023/07/25 08:46:36;;;;;;;6.00;2.08;;;17.30;99.90;;;;;;5116991;28;20205;-52
2023/07/25 08:49:03;;;;;;;5.05;1.42;;;17.20;99.90;;;;;;5117004;28;20253;-51
2023/07/25 08:51:34;;;;;;;7.07;1.50;;;17.10;99.90;;;;;;5116958;28;20177;-52
2023/07/25 08:54:15;;;;;;;4.85;1.45;;;17.00;99.90;;;;;;5117032;28;20157;-52
2023/07/25 08:56:42;;;;;;;5.45;1.80;;;17.00;99.90;;;;;;5116924;28;20157;-53
2023/07/25 08:59:09;;;;;;;4.95;1.55;;;17.00;99.90;;;;;;5116807;28;20177;-52
2023/07/25 09:01:34;;;;;;;6.63;1.70;;;17.00;99.90;;;;;;5115455;28;20621;-53
2023/07/25 09:04:01;;;;;;;3.05;1.52;;;17.20;99.90;;;;;;5116731;28;20239;-52
2023/07/25 09:06:30;;;;;;;4.63;1.63;;;17.50;99.90;;;;;;5116633;28;20213;-49
2023/07/25 09:08:55;;;;;;;3.65;1.50;;;17.70;99.90;;;;;;5115185;28;20172;-49
2023/07/25 09:11:21;;;;;;;5.07;1.50;;;17.80;99.90;;;;;;5116500;28;20177;-55
2023/07/25 09:13:50;;;;;;;5.57;1.33;;;17.80;99.90;;;;;;5116528;28;20177;-53
2023/07/25 09:16:15;;;;;;;4.22;1.42;;;17.70;99.90;;;;;;5115961;28;20170;-52
2023/07/25 09:18:42;;;;;;;4.00;1.30;;;17.50;99.90;;;;;;5115914;28;20221;-52
2023/07/25 09:21:08;;;;;;;3.78;1.33;;;17.70;99.90;;;;;;5116392;28;20180;-51
2023/07/25 09:23:34;;;;;;;7.82;1.63;;;18.10;99.90;;;;;;5116178;28;20176;-52
2023/07/25 09:26:10;;;;;;;4.90;1.48;;;18.00;99.90;;;;;;5116195;27;20208;-53
2023/07/25 09:28:49;;;;;;;4.80;1.60;;;17.80;99.90;;;;;;5116161;28;20169;-51
2023/07/25 09:31:15;;;;;;;4.78;1.70;;;17.50;99.90;;;;;;5116572;28;20168;-53
2023/07/25 09:33:41;;;;;;;2.95;1.42;;;17.60;99.90;;;;;;5116178;28;20169;-52
2023/07/25 09:36:07;;;;;;;4.82;1.42;;;17.70;99.90;;;;;;5114934;28;20530;-52
2023/07/25 09:38:35;;;;;;;3.90;1.20;;;17.60;99.90;;;;;;5115994;28;20245;-52
2023/07/25 09:41:05;;;;;;;3.78;1.13;;;17.80;99.90;;;;;;5115958;28;20169;-52
2023/07/25 09:43:31;;;;;;;2.97;1.08;;;18.30;99.90;;;;;;5115994;28;20173;-52
2023/07/25 09:45:56;;;;;;;4.22;1.20;;;18.80;99.90;;;;;;5115832;28;20223;-51
2023/07/25 09:48:22;;;;;;;4.88;1.30;;;18.70;99.90;;;;;;5115808;28;20183;-53
2023/07/25 09:50:50;;;;;;;7.32;1.42;;;18.40;99.90;;;;;;5114541;28;20634;-52
2023/07/25 09:53:17;;;;;;;3.92;1.00;;;18.20;99.90;;;;;;5115419;28;20200;-53
2023/07/25 09:55:43;;;;;;;3.75;1.45;;;17.80;99.90;;;;;;5115612;28;20189;-52
2023/07/25 09:58:10;;;;;;;5.75;1.45;;;17.50;99.90;;;;;;5115635;28;20264;-51
2023/07/25 10:00:36;;;;;;;4.40;1.38;;;17.40;99.90;;;;;;5115602;28;20188;-53
2023/07/25 10:03:02;;;;;;;3.42;1.30;;;17.50;99.90;;;;;;5115477;28;20256;-52
2023/07/25 10:05:28;;;;;;;2.80;1.10;;;18.00;99.90;;;;;;5114193;28;20527;-51
2023/07/25 10:07:59;;;;;;;2.55;1.02;;;18.30;99.90;;;;;;5115425;28;20177;-52
2023/07/25 10:10:26;;;;;;;2.45;0.98;;;18.60;99.90;;;;;;5115444;28;20214;-48
2023/07/25 10:12:53;;;;;;;4.05;1.30;;;19.10;99.90;;;;;;5115342;28;20587;-51
2023/07/25 10:15:19;;;;;;;3.10;0.90;;;19.00;99.90;;;;;;5115356;28;20181;-53
2023/07/25 10:17:45;;;;;;;3.40;1.20;;;19.10;99.90;;;;;;5114908;28;20357;-53
2023/07/25 10:20:25;;;;;;;6.40;1.50;;;19.20;99.90;;;;;;5114674;28;20217;-54
2023/07/25 10:22:50;;;;;;;2.78;1.20;;;19.40;99.90;;;;;;5115230;28;20166;-52
2023/07/25 10:25:27;;;;;;;3.40;1.10;;;19.20;99.90;;;;;;5114985;28;20173;-50
2023/07/25 10:27:59;;;;;;;3.25;1.10;;;18.60;99.90;;;;;;5113987;28;20173;-51
2023/07/25 10:30:27;;;;;;;3.72;1.23;;;18.60;99.90;;;;;;5115070;28;20192;-52
2023/07/25 10:32:56;;;;;;;3.65;0.98;;;19.20;99.90;;;;;;5115020;28;20321;-49
2023/07/25 10:35:52;;;;;;;1.85;0.98;;;19.30;99.90;;;;;;5114905;28;20589;-52
2023/07/25 10:38:32;;;;;;;3.28;1.27;;;18.90;99.90;;;;;;5114857;28;20164;-53
2023/07/25 10:40:59;;;;;;;4.30;1.00;;;18.60;99.90;;;;;;5114785;28;20173;-53
2023/07/25 10:43:48;;;;;;;2.63;1.08;;;18.10;99.90;;;;;;5114788;28;20169;-54
2023/07/25 10:46:27;;;;;;;3.88;1.30;;;18.20;99.90;;;;;;5103454;28;20217;-52
2023/07/25 10:48:54;;;;;;;3.20;1.10;;;18.50;99.90;;;;;;5114421;28;20634;-50
2023/07/25 10:51:21;;;;;;;3.08;1.45;;;18.10;99.90;;;;;;5114565;28;20169;-52
2023/07/25 10:54:10;;;;;;;2.45;1.20;;;17.80;99.90;;;;;;5114513;28;20177;-53
2023/07/25 10:56:40;;;;;;;3.83;1.25;;;17.90;99.90;;;;;;5114501;28;20358;-54
2023/07/25 10:59:14;;;;;;;3.35;1.30;;;18.00;99.90;;;;;;5114162;28;20630;-53
2023/07/25 11:01:50;;;;;;;3.88;1.30;;;18.20;99.90;;;;;;5114458;28;20263;-51
2023/07/25 11:04:31;;;;;;;2.45;1.13;;;18.20;99.90;;;;;;5114491;28;20164;-54
2023/07/25 11:07:08;;;;;;;2.22;1.15;;;17.80;99.90;;;;;;5114282;28;20255;-55
2023/07/25 11:09:40;;;;;;;3.03;1.20;;;17.60;99.90;;;;;;5114316;28;20635;-54
2023/07/25 11:12:06;;;;;;;3.35;1.17;;;17.80;99.90;;;;;;5114306;28;20184;-53
2023/07/25 11:14:33;;;;;;;4.47;1.13;;;18.30;99.90;;;;;;5114211;28;20531;-54
2023/07/25 11:16:59;;;;;;;2.45;1.15;;;18.80;99.90;;;;;;5114269;27;20180;-51
2023/07/25 11:19:26;;;;;;;3.83;1.20;;;19.20;99.90;;;;;;5114086;28;20559;-54
2023/07/25 11:21:52;;;;;;;2.78;1.00;;;19.50;99.90;;;;;;5114093;28;20176;-51
2023/07/25 11:24:19;;;;;;;2.72;1.15;;;19.70;99.90;;;;;;5114108;28;20177;-53
2023/07/25 11:26:45;;;;;;;2.70;1.05;;;19.70;99.90;;;;;;5113972;28;20212;-54
2023/07/25 11:29:15;;;;;;;3.80;1.10;;;19.20;99.90;;;;;;5114155;28;20181;-52
2023/07/25 11:31:48;;;;;;;5.25;1.20;;;19.40;99.90;;;;;;5113983;28;20519;-52
2023/07/25 11:34:17;;;;;;;3.20;1.10;;;19.90;99.90;;;;;;5114012;28;20181;-52
2023/07/25 11:36:43;;;;;;;2.13;1.00;;;19.30;99.90;;;;;;5114015;28;20201;-53
2023/07/25 11:39:10;;;;;;;2.05;0.93;;;18.90;99.90;;;;;;5113525;28;20512;-54
2023/07/25 11:41:37;;;;;;;3.65;1.90;;;18.40;99.90;;;;;;5113964;28;20228;-52
2023/07/25 11:44:07;;;;;;;5.13;1.98;;;18.70;99.90;;;;;;5113933;28;20169;-54
2023/07/25 11:46:33;;;;;;;3.40;1.05;;;19.20;99.90;;;;;;5113999;28;20226;-55
2023/07/25 11:49:00;;;;;;;2.03;0.70;;;19.50;99.90;;;;;;5113851;28;20181;-51
2023/07/25 11:51:26;;;;;;;3.50;1.10;;;19.40;99.90;;;;;;5113874;28;20169;-54
2023/07/25 11:53:52;;;;;;;2.22;1.10;;;19.00;99.90;;;;;;5113856;28;20177;-53
2023/07/25 11:56:18;;;;;;;3.22;1.25;;;18.90;99.90;;;;;;5113811;28;20526;-54
2023/07/25 11:58:48;;;;;;;2.42;1.20;;;19.30;99.90;;;;;;5113796;28;20169;-53
2023/07/25 12:01:14;;;;;;;2.38;1.00;;;19.50;99.90;;;;;;5113709;28;20177;-50
2023/07/25 12:03:46;;;;;;;4.07;1.08;;;19.60;99.90;;;;;;5113688;28;20176;-54
2023/07/25 12:06:12;;;;;;;5.80;1.20;;;19.70;99.90;;;;;;5113674;28;20197;-51
2023/07/25 12:08:45;;;;;;;2.53;0.88;;;19.50;99.90;;;;;;5113686;28;20174;-50
2023/07/25 12:11:15;;;;;;;2.78;1.00;;;19.80;99.90;;;;;;5113395;28;20162;-51
2023/07/25 12:13:48;;;;;;;3.00;0.98;;;20.00;99.90;;;;;;5113333;28;20604;-53
2023/07/25 12:16:34;;;;;;;2.67;0.88;;;20.30;99.90;;;;;;5113638;28;20174;-52
2023/07/25 12:19:07;;;;;;;2.55;1.00;;;20.10;99.90;;;;;;5113558;28;20298;-54
2023/07/25 12:21:34;;;;;;;2.25;0.85;;;20.00;99.90;;;;;;5113584;28;20660;-51
2023/07/25 12:24:02;;;;;;;3.88;1.20;;;20.50;99.90;;;;;;5113288;28;20168;-52
2023/07/25 12:26:28;;;;;;;2.45;0.65;;;21.00;99.90;;;;;;5113497;28;20205;-52
2023/07/25 12:28:55;;;;;;;2.67;0.77;;;21.10;99.90;;;;;;5113498;28;20303;-53
2023/07/25 12:31:21;;;;;;;6.00;1.08;;;20.40;99.90;;;;;;5113457;28;20538;-53
2023/07/25 12:33:49;;;;;;;2.40;0.98;;;20.00;99.90;;;;;;5113433;28;20169;-49
2023/07/25 12:36:17;;;;;;;1.85;0.85;;;19.60;99.90;;;;;;5113117;28;20535;-49
2023/07/25 12:38:43;;;;;;;2.78;0.80;;;19.20;99.90;;;;;;5113439;28;20170;-53
2023/07/25 12:41:09;;;;;;;2.45;0.98;;;18.90;99.90;;;;;;5113407;28;20192;-52
2023/07/25 12:43:35;;;;;;;3.35;0.93;;;18.60;99.90;;;;;;5113394;28;20576;-50
2023/07/25 12:46:02;;;;;;;2.28;1.00;;;19.00;99.90;;;;;;5113213;28;20225;-48